createdAt,value
2023-01-09T00:03:01.068Z,1003.4854696895198
2023-01-09T00:07:57.354Z,1003.4367425092241
2023-01-09T00:12:53.641Z,1003.3390956587915
2023-01-09T00:17:49.868Z,1003.330740755323
2023-01-09T00:22:45.142Z,1003.3740708564662
2023-01-09T00:27:41.344Z,1003.3651839174837
2023-01-09T00:32:37.649Z,1003.4107224327314
2023-01-09T00:37:33.925Z,1003.4223978248789
2023-01-09T00:42:31.146Z,1003.400648558236
2023-01-09T00:47:31.448Z,1003.3383115470765
2023-01-09T00:52:27.691Z,1003.3874217537436
2023-01-09T00:57:23.935Z,1003.3178756961898
2023-01-09T01:02:20.245Z,1003.3413090437848
2023-01-09T01:07:16.426Z,1003.2852220117328
2023-01-09T01:12:12.734Z,1003.269639068088
2023-01-09T01:17:08.929Z,1003.2280101315744
2023-01-09T01:22:05.242Z,1003.1079499742917
2023-01-09T01:27:01.489Z,1002.9740804731641
2023-01-09T01:31:57.745Z,1002.8799532173101
2023-01-09T01:36:54.006Z,1002.8090436656319
2023-01-09T01:41:50.228Z,1002.6797093952598
2023-01-09T01:46:47.512Z,1002.5809763714834
2023-01-09T01:51:45.729Z,1002.4941688653485
2023-01-09T01:56:48.011Z,1002.4596664594309
2023-01-09T02:01:45.390Z,1002.3998374826316
2023-01-09T02:06:43.545Z,1002.2328924091303
2023-01-09T02:11:43.780Z,1002.2279430145709
2023-01-09T02:16:51.030Z,1002.2056131307443
2023-01-09T02:21:59.248Z,1002.1924440182967
2023-01-09T02:27:04.442Z,1002.0268354034151
2023-01-09T02:32:06.728Z,1002.0076041248902
2023-01-09T02:37:10.970Z,1001.9196883803038
2023-01-09T02:42:13.197Z,1001.7193940026444
2023-01-09T02:47:14.464Z,1001.5926991141321
2023-01-09T02:52:23.685Z,1001.5526158952562
2023-01-09T02:57:32.902Z,1001.5751588033901
2023-01-09T03:02:42.264Z,1001.418272420372
2023-01-09T03:07:47.357Z,1001.4125872186918
2023-01-09T03:12:48.665Z,1001.453073278798
2023-01-09T03:17:48.846Z,1001.3507890666546
2023-01-09T03:22:47.141Z,1001.3129445705579
2023-01-09T03:27:43.379Z,1001.1720173086027
2023-01-09T03:32:39.631Z,1001.1201419027639
2023-01-09T03:37:35.904Z,1001.0496858413181
2023-01-09T03:42:32.160Z,1000.9618388189978
2023-01-09T03:47:28.402Z,1000.9388317229584
2023-01-09T03:52:24.687Z,1000.9130099680311
2023-01-09T03:57:20.919Z,1001.0202947892963
2023-01-09T04:02:17.335Z,1000.9755193033722
2023-01-09T04:07:13.478Z,1000.9571065557561
2023-01-09T04:12:09.696Z,1000.9353756354379
2023-01-09T04:17:06.003Z,1000.8948635894408
2023-01-09T04:22:02.244Z,1000.8694841366824
2023-01-09T04:26:58.504Z,1000.8939410410366
2023-01-09T04:31:54.786Z,1000.9152268476932
2023-01-09T04:36:51.056Z,1000.9834151670699
2023-01-09T04:41:47.287Z,1000.9944012442758
2023-01-09T04:46:43.523Z,1000.9259300896955
2023-01-09T04:51:39.795Z,1000.9205023032188
2023-01-09T04:56:36.090Z,1000.8838428266483
2023-01-09T05:01:32.437Z,1000.8271540382734
2023-01-09T05:06:28.551Z,1000.8317098657503
2023-01-09T05:11:24.851Z,1000.7126646299268
2023-01-09T05:16:21.170Z,1000.7167804132866
2023-01-09T05:21:17.356Z,1000.6228800300493
2023-01-09T05:26:13.595Z,1000.450615648676
2023-01-09T05:31:09.887Z,1000.4200753092695
2023-01-09T05:36:06.108Z,1000.4123266272255
2023-01-09T05:41:02.362Z,1000.2609552055266
2023-01-09T05:45:58.645Z,1000.2976810740901
2023-01-09T05:50:54.898Z,1000.1695886718285
2023-01-09T05:55:51.160Z,999.9428934397255
2023-01-09T06:00:47.421Z,999.9368373255046
2023-01-09T06:05:43.670Z,999.9078000949922
2023-01-09T06:10:41.962Z,999.8985190405388
2023-01-09T06:15:38.284Z,999.8331231838641
2023-01-09T06:20:34.484Z,999.890688294499
2023-01-09T06:25:30.704Z,999.8287346018441
2023-01-09T06:30:26.964Z,999.7594127736672
2023-01-09T06:35:23.285Z,999.7269865340575
2023-01-09T06:40:19.536Z,999.7816706687747
2023-01-09T06:45:15.780Z,999.6614839665317
2023-01-09T06:50:12.038Z,999.6663273943599
2023-01-09T06:55:08.281Z,999.7280634922495
2023-01-09T07:00:04.505Z,999.6720630856031
2023-01-09T07:05:00.794Z,999.5977107192724
2023-01-09T07:09:57.030Z,999.7156637492631
2023-01-09T07:14:53.301Z,999.6103356105892
2023-01-09T07:19:49.555Z,999.5065335172467
2023-01-09T07:24:45.835Z,999.3323214921296
2023-01-09T07:29:42.056Z,999.3224835407798
2023-01-09T07:34:38.379Z,999.3787640569908
2023-01-09T07:39:34.586Z,999.4175784834116
2023-01-09T07:44:30.908Z,999.3563942331596
2023-01-09T07:49:27.142Z,999.4192276230629
2023-01-09T07:54:23.399Z,999.4469454885555
2023-01-09T07:59:19.678Z,999.4438924522375
2023-01-09T08:04:16.108Z,999.5138841736938
2023-01-09T08:09:12.190Z,999.3934976846367
2023-01-09T08:14:09.417Z,999.4551619683418
2023-01-09T08:19:05.661Z,999.3643582493569
2023-01-09T08:24:01.934Z,999.5496013573013
2023-01-09T08:28:58.194Z,999.5857717847761
2023-01-09T08:33:54.786Z,999.6363384221861
2023-01-09T08:38:50.742Z,999.5930689541772
2023-01-09T08:43:47.010Z,999.6085541316153
2023-01-09T08:48:43.243Z,999.5956435391435
2023-01-09T08:53:40.035Z,999.5827181217849
2023-01-09T08:58:35.803Z,999.7245927503131
2023-01-09T09:03:32.016Z,999.9029070583549
2023-01-09T09:08:30.312Z,999.8513772097924
2023-01-09T09:13:27.529Z,999.7575576576601
2023-01-09T09:18:23.786Z,999.6570035926676
2023-01-09T09:23:20.036Z,999.6179276504529
2023-01-09T09:28:20.355Z,999.4558676692951
2023-01-09T09:33:16.516Z,999.3230150906353
2023-01-09T09:38:13.010Z,999.5451872597583
2023-01-09T09:43:26.028Z,999.2894159670391
2023-01-09T09:48:32.313Z,999.1261810774647
2023-01-09T09:53:36.546Z,999.0525841080674
2023-01-09T09:58:36.789Z,999.017730461684
2023-01-09T10:03:37.120Z,998.9244138258524
2023-01-09T10:08:45.259Z,998.8326799820009
2023-01-09T10:13:44.547Z,998.7902799021325
2023-01-09T10:18:52.706Z,998.7988079006915
2023-01-09T10:24:03.724Z,998.6939381895648
2023-01-09T10:29:15.193Z,998.7030425495919
2023-01-09T10:34:29.369Z,998.5600529451095
2023-01-09T10:39:34.639Z,998.485085604974
2023-01-09T10:44:35.131Z,998.2310974709594
2023-01-09T10:49:32.069Z,998.0650570654487
2023-01-09T10:54:28.417Z,997.9387289532488
2023-01-09T10:59:25.645Z,997.7309687436438
2023-01-09T11:04:25.969Z,997.7047317113628
2023-01-09T11:09:22.170Z,997.572895660132
2023-01-09T11:14:24.366Z,997.4504717383941
2023-01-09T11:19:22.702Z,997.3013647880289
2023-01-09T11:24:25.492Z,997.2898578863404
2023-01-09T11:29:41.140Z,997.3016870454458
2023-01-09T11:34:38.369Z,997.2205347981237
2023-01-09T11:39:39.622Z,997.0255381507103
2023-01-09T11:44:36.081Z,997.1305916663332
2023-01-09T11:49:32.145Z,996.952278526388
2023-01-09T11:54:42.389Z,996.9027582222371
2023-01-09T11:59:45.127Z,996.7538970742575
2023-01-09T12:04:56.087Z,996.6358829466773
2023-01-09T12:09:56.064Z,996.5819685263616
2023-01-09T12:15:09.888Z,996.5591606975104
2023-01-09T12:20:25.630Z,996.6288717977228
2023-01-09T12:25:32.718Z,996.6676645490605
2023-01-09T12:30:40.967Z,996.6544261426832
2023-01-09T12:35:52.195Z,996.6072608867438
2023-01-09T12:41:04.946Z,996.6376967175338
2023-01-09T12:46:14.728Z,996.5260769588776
2023-01-09T12:51:24.895Z,996.4691636901506
2023-01-09T12:56:27.354Z,996.3822356056437
2023-01-09T13:01:28.409Z,996.3729675624453
2023-01-09T13:06:29.625Z,996.276823435276
2023-01-09T13:11:42.625Z,996.2133055447798
2023-01-09T13:16:48.136Z,996.2635702121864
2023-01-09T13:21:46.279Z,996.2410893640058
2023-01-09T13:26:47.784Z,996.2543232074822
2023-01-09T13:32:07.886Z,996.282963492349
2023-01-09T13:37:05.130Z,996.2900567791819
2023-01-09T13:42:03.282Z,996.3249061571877
2023-01-09T13:47:03.716Z,996.2781482931873
2023-01-09T13:52:05.786Z,996.3420849806221
2023-01-09T13:57:20.293Z,996.2644457564378
2023-01-09T14:02:23.069Z,996.3059313065844
2023-01-09T14:07:30.802Z,996.2300668471955
2023-01-09T14:12:33.677Z,996.0999522266632
2023-01-09T14:17:32.155Z,995.9931002783726
2023-01-09T14:22:30.229Z,995.9374542216224
2023-01-09T14:27:37.422Z,995.9480845814703
2023-01-09T14:32:42.748Z,995.8898344857672
2023-01-09T14:37:52.902Z,995.8144983797159
2023-01-09T14:42:59.139Z,995.7374342243036
2023-01-09T14:48:11.383Z,995.5936158831465
2023-01-09T14:53:12.358Z,995.5265652292742
2023-01-09T14:58:10.006Z,995.4699078367817
2023-01-09T15:03:12.128Z,995.3147823376606
2023-01-09T15:08:18.773Z,995.3154002899424
2023-01-09T15:13:19.247Z,995.1712467667371
2023-01-09T15:18:20.824Z,995.0528074833984
2023-01-09T15:23:22.020Z,994.9346767932276
2023-01-09T16:22:12.296Z,994.3953759850882
2023-01-09T16:27:19.420Z,994.3084481432254
2023-01-09T16:32:17.765Z,994.333025327722
2023-01-09T16:37:14.086Z,994.2532565572459
2023-01-09T16:42:17.060Z,994.2674778535439
2023-01-09T16:47:28.571Z,994.1402341752529
2023-01-09T16:52:30.644Z,994.170994277847
2023-01-09T16:57:34.540Z,994.1190233312525
2023-01-09T17:02:31.297Z,994.1508338275181
2023-01-09T17:07:27.417Z,994.2407301794448
2023-01-09T17:12:28.259Z,994.1142482538853
2023-01-09T17:17:30.408Z,994.1284445128823
2023-01-09T17:22:30.629Z,994.1312381920802
2023-01-09T17:27:27.501Z,994.0725135043795
2023-01-09T17:32:23.756Z,994.0452051299876
2023-01-09T17:37:26.787Z,993.8848494977501
2023-01-09T17:42:24.225Z,994.0202980119606
2023-01-09T17:47:20.470Z,994.0610399158663
2023-01-09T17:52:17.799Z,994.0927256733364
2023-01-09T17:57:24.359Z,994.130333722278
2023-01-09T18:02:28.665Z,994.1167733507699
2023-01-09T18:07:31.503Z,994.0816714257021
2023-01-09T18:12:27.711Z,993.9345126467872
2023-01-09T18:17:23.960Z,994.0046551250156
2023-01-09T18:22:19.846Z,993.9235748375864
2023-01-09T18:27:20.464Z,993.9934557077428
2023-01-09T18:32:16.773Z,993.936929303668
2023-01-09T18:37:13.016Z,993.870544007998
2023-01-09T18:42:17.708Z,993.8608159617719
2023-01-09T18:47:15.470Z,993.743048069649
2023-01-09T18:52:16.655Z,993.6964261880556
2023-01-09T18:57:17.971Z,993.5587223278933
2023-01-09T19:02:19.273Z,993.5159975973486
2023-01-09T19:07:15.558Z,993.3618323102743
2023-01-09T19:12:15.819Z,993.3020038755524
2023-01-09T19:17:17.976Z,993.2294041261127
2023-01-09T19:22:13.277Z,993.2118933476559
2023-01-09T19:27:10.523Z,993.1128722424169
2023-01-09T19:32:06.907Z,993.0571053063734
2023-01-09T19:37:02.096Z,993.0306930112678
2023-01-09T19:42:07.348Z,992.933000184366
2023-01-09T19:47:08.018Z,992.9895998669731
2023-01-09T19:52:04.793Z,993.0869791880855
2023-01-09T19:57:09.438Z,993.0263206897062
2023-01-09T20:02:14.444Z,993.0223331634082
2023-01-09T20:07:16.517Z,993.0428789542937
2023-01-09T20:12:12.800Z,993.0227771068817
2023-01-09T20:17:13.960Z,992.954080115485
2023-01-09T20:22:14.208Z,992.8722808151032
2023-01-09T20:27:10.843Z,992.759608003643
2023-01-09T20:32:07.804Z,992.6297989924839
2023-01-09T20:37:04.139Z,992.7023910955187
2023-01-09T20:42:07.299Z,992.6306782167525
2023-01-09T20:47:13.906Z,992.6196618091897
2023-01-09T20:52:15.031Z,992.5730253515696
2023-01-09T20:57:15.102Z,992.4841330227358
2023-01-09T21:02:15.283Z,992.3767537993702
2023-01-09T21:07:16.774Z,992.2975984058851
2023-01-09T21:12:13.512Z,992.1805855029306
2023-01-09T21:17:14.134Z,992.0682249539601
2023-01-09T21:22:10.281Z,991.9733440360827
2023-01-09T21:27:24.129Z,992.0222239533499
2023-01-09T21:32:25.184Z,992.0085696287475
2023-01-09T21:37:30.964Z,991.9901175427892
2023-01-09T21:42:28.254Z,991.95507667533
2023-01-09T21:47:28.880Z,991.8974847193276
2023-01-09T21:52:26.405Z,991.8027705695249
2023-01-09T21:57:26.017Z,991.8297039876497
2023-01-09T22:02:26.653Z,991.8301318362973
2023-01-09T22:07:26.727Z,991.8401306019471
2023-01-09T22:12:31.699Z,991.7737035789265
2023-01-09T22:17:28.007Z,991.6439656565427
2023-01-09T22:22:24.230Z,991.4688571058425
2023-01-09T22:27:24.958Z,991.272686032925
2023-01-09T22:32:20.744Z,991.3062057336299
2023-01-09T22:37:17.081Z,991.3536186939286
2023-01-09T22:42:13.250Z,991.3720629262591
2023-01-09T22:47:10.082Z,991.3593528364923
2023-01-09T22:52:06.822Z,991.4359216022277
2023-01-09T22:57:03.065Z,991.3625797571946
2023-01-09T23:01:59.422Z,991.3313632071793
2023-01-09T23:06:55.916Z,991.2959410455043
2023-01-09T23:11:51.843Z,991.2176823924368
2023-01-09T23:16:48.114Z,991.1892885468123
2023-01-09T23:21:45.332Z,991.1134079459376
2023-01-09T23:26:54.401Z,991.1105849408389
2023-01-09T23:31:54.956Z,991.0202585539244
2023-01-09T23:36:51.122Z,991.0280465874944
2023-01-09T23:41:47.310Z,991.0237042437114
2023-01-09T23:46:43.590Z,990.9387326497673
2023-01-09T23:51:39.848Z,990.9392533029627
2023-01-09T23:56:37.122Z,990.8931618019799
